.
WxDataArchive / Data Records for 2014-12-07
2014-12-06 December 2014 2014-12-08

Data Records for Sunday, 07 December 2014

Time	Temp	Chill	HIndex	Humid	Dewpt	 Wind 	HiWind	WindDir	Rain 	Barom
-----	----	-----	------	-----	-----	------	------	-------	-----	-----
00:00	29.1	29.1	29.1	68	19.9	0	1	338	0.00	30.626 
00:05	29.0	29.0	29.0	67	19.4	0	1	338	0.00	30.626 
00:10	29.0	29.0	29.0	67	19.4	0	1	338	0.00	30.626 
00:15	28.8	28.8	28.8	67	19.2	0	1	338	0.00	30.624 
00:20	28.7	28.7	28.7	67	19.2	0	1	338	0.00	30.624 
00:25	28.7	28.7	28.7	67	19.2	0	2	0	0.00	30.624 
00:30	28.5	28.5	28.5	67	19.0	0	1	0	0.00	30.624 
00:35	28.5	28.5	28.5	67	19.0	0	2	0	0.00	30.624 
00:40	28.5	28.5	28.5	67	19.0	0	2	0	0.00	30.624 
00:45	28.4	28.4	28.4	67	18.9	0	1	0	0.00	30.628 
00:50	28.4	28.4	28.4	67	18.9	0	1	0	0.00	30.628 
00:55	28.2	28.2	28.2	67	18.7	0	1	0	0.00	30.628 
01:00	28.1	28.1	28.1	67	18.6	0	1	0	0.00	30.630 
01:05	28.1	28.1	28.1	68	18.9	0	1	0	0.00	30.630 
01:10	27.9	27.9	27.9	68	18.7	0	1	0	0.00	30.630 
01:15	27.9	27.9	27.9	68	18.7	0	0	---	0.00	30.629 
01:20	27.8	27.8	27.8	68	18.6	0	1	0	0.00	30.629 
01:25	27.6	27.6	27.6	68	18.4	0	0	---	0.00	30.629 
01:30	27.5	27.5	27.5	68	18.3	0	0	---	0.00	30.629 
01:35	27.2	27.2	27.2	68	18.1	0	0	---	0.00	30.629 
01:40	27.0	27.0	27.0	68	17.9	0	0	---	0.00	30.629 
01:45	26.7	26.7	26.7	69	17.9	0	0	---	0.00	30.638 
01:50	26.6	26.6	26.6	69	17.8	0	0	---	0.00	30.638 
01:55	26.3	26.3	26.3	69	17.5	0	0	---	0.00	30.638 
02:00	26.0	26.0	26.0	70	17.6	0	0	---	0.00	30.638 
02:05	25.8	25.8	25.8	71	17.7	0	0	---	0.00	30.638 
02:10	25.7	25.7	25.7	72	17.9	0	0	---	0.00	30.638 
02:15	25.7	25.7	25.7	72	17.9	0	0	---	0.00	30.640 
02:20	25.7	25.7	25.7	73	18.3	0	1	0	0.00	30.640 
02:25	25.8	25.8	25.8	73	18.4	0	1	0	0.00	30.640 
02:30	25.8	25.8	25.8	73	18.4	0	0	---	0.00	30.645 
02:35	25.8	25.8	25.8	73	18.4	0	0	---	0.00	30.645 
02:40	25.8	25.8	25.8	72	18.0	0	0	---	0.00	30.645 
02:45	25.8	25.8	25.8	72	18.0	0	0	---	0.00	30.648 
02:50	25.7	25.7	25.7	72	17.9	0	0	---	0.00	30.648 
02:55	25.6	25.6	25.6	73	18.2	0	0	---	0.00	30.648 
03:00	25.4	25.4	25.4	73	18.0	0	0	---	0.00	30.647 
03:05	25.4	25.4	25.4	73	18.0	0	1	0	0.00	30.647 
03:10	25.4	25.4	25.4	73	18.0	0	1	0	0.00	30.647 
03:15	25.6	25.6	25.6	72	17.8	0	3	112	0.00	30.635 
03:20	25.8	25.8	25.8	71	17.7	0	1	112	0.00	30.635 
03:25	26.0	26.0	26.0	70	17.6	0	2	112	0.00	30.635 
03:30	26.1	26.1	26.1	69	17.3	0	1	112	0.00	30.637 
03:35	26.3	26.3	26.3	69	17.5	0	2	112	0.00	30.637 
03:40	26.4	26.4	26.4	69	17.6	0	1	112	0.00	30.637 
03:45	26.3	26.3	26.3	69	17.5	0	2	112	0.00	30.627 
03:50	26.3	26.3	26.3	69	17.5	0	4	112	0.00	30.627 
03:55	26.3	26.3	26.3	69	17.5	0	2	112	0.00	30.627 
04:00	26.1	26.1	26.1	69	17.3	0	2	112	0.00	30.624 
04:05	26.1	26.1	26.1	69	17.3	0	2	112	0.00	30.624 
04:10	26.1	26.1	26.1	69	17.3	0	2	0	0.00	30.624 
04:15	26.0	26.0	26.0	69	17.2	0	4	90	0.00	30.621 
04:20	26.0	26.0	26.0	69	17.2	0	3	90	0.00	30.621 
04:25	26.0	26.0	26.0	69	17.2	0	2	68	0.00	30.621 
04:30	26.0	26.0	26.0	70	17.6	0	3	68	0.00	30.622 
04:35	25.8	25.8	25.8	69	17.1	0	3	68	0.00	30.622 
04:40	25.8	25.8	25.8	70	17.4	0	3	45	0.00	30.622 
04:45	25.8	25.8	25.8	70	17.4	0	1	45	0.00	30.625 
04:50	25.8	25.8	25.8	70	17.4	0	3	45	0.00	30.625 
04:55	25.8	25.8	25.8	70	17.4	0	1	90	0.00	30.625 
05:00	25.7	25.7	25.7	70	17.3	0	3	90	0.00	30.623 
05:05	25.7	25.7	25.7	70	17.3	0	2	90	0.00	30.623 
05:10	25.8	25.8	25.8	70	17.4	0	1	90	0.00	30.623 
05:15	25.7	25.7	25.7	70	17.3	0	3	90	0.00	30.631 
05:20	25.6	25.6	25.6	70	17.2	0	2	90	0.00	30.631 
05:25	25.6	25.6	25.6	70	17.2	0	3	90	0.00	30.631 
05:30	25.4	25.4	25.4	71	17.3	0	2	90	0.00	30.634 
05:35	25.4	25.4	25.4	71	17.3	0	2	90	0.00	30.634 
05:40	25.3	25.3	25.3	71	17.2	0	2	90	0.00	30.634 
05:45	25.3	25.3	25.3	71	17.2	0	3	90	0.00	30.640 
05:50	25.1	25.1	25.1	72	17.4	0	0	---	0.00	30.640 
05:55	25.0	25.0	25.0	72	17.3	0	1	90	0.00	30.640 
06:00	24.8	24.8	24.8	72	17.1	0	0	---	0.00	30.644 
06:05	24.7	24.7	24.7	72	17.0	0	1	90	0.00	30.644 
06:10	24.5	24.5	24.5	73	17.1	0	0	---	0.00	30.644 
06:15	24.4	24.4	24.4	73	17.0	0	0	---	0.00	30.649 
06:20	24.2	24.2	24.2	73	16.8	0	0	---	0.00	30.649 
06:25	24.2	24.2	24.2	74	17.1	0	0	---	0.00	30.649 
06:30	24.2	24.2	24.2	74	17.1	0	0	---	0.00	30.653 
06:35	24.1	24.1	24.1	74	17.0	0	0	---	0.00	30.653 
06:40	24.1	24.1	24.1	74	17.0	0	2	90	0.00	30.653 
06:45	24.1	24.1	24.1	74	17.0	0	1	90	0.00	30.662 
06:50	24.1	24.1	24.1	74	17.0	0	2	90	0.00	30.662 
06:55	23.9	23.9	23.9	74	16.8	0	2	90	0.00	30.662 
07:00	23.9	23.9	23.9	75	17.2	0	1	90	0.00	30.664 
07:05	23.9	23.9	23.9	75	17.2	0	1	90	0.00	30.664 
07:10	23.8	23.8	23.8	75	17.1	0	1	90	0.00	30.664 
07:15	23.8	23.8	23.8	75	17.1	0	2	90	0.00	30.665 
07:20	23.6	23.6	23.6	75	16.9	0	1	90	0.00	30.665 
07:25	23.6	23.6	23.6	75	16.9	0	1	90	0.00	30.665 
07:30	23.6	23.6	23.6	76	17.2	0	0	---	0.00	30.670 
07:35	23.5	23.5	23.5	76	17.1	0	2	90	0.00	30.670 
07:40	23.5	23.5	23.5	76	17.1	0	0	---	0.00	30.670 
07:45	23.5	23.5	23.5	76	17.1	0	0	---	0.00	30.677 
07:50	23.5	23.5	23.5	76	17.1	0	0	---	0.00	30.677 
07:55	23.5	23.5	23.5	76	17.1	0	0	---	0.00	30.677 
08:00	23.5	23.5	23.5	76	17.1	0	1	90	0.00	30.677 
08:05	23.5	23.5	23.5	77	17.4	0	1	90	0.00	30.677 
08:10	23.6	23.6	23.6	77	17.5	0	1	90	0.00	30.677 
08:15	23.8	23.8	23.8	77	17.7	0	0	---	0.00	30.681 
08:20	23.9	23.9	23.9	77	17.8	0	1	90	0.00	30.681 
08:25	24.1	24.1	24.1	77	18.0	0	2	90	0.00	30.681 
08:30	24.2	24.2	24.2	77	18.1	0	2	90	0.00	30.680 
08:35	24.5	24.5	24.5	76	18.0	0	2	90	0.00	30.680 
08:40	24.7	24.7	24.7	76	18.2	1	4	90	0.00	30.680 
08:45	24.8	24.8	24.8	76	18.3	1	4	90	0.00	30.677 
08:50	25.1	25.1	25.1	75	18.3	1	5	90	0.00	30.677 
08:55	25.3	25.3	25.3	76	18.8	1	5	90	0.00	30.677 
09:00	25.6	25.6	25.6	75	18.8	2	6	90	0.00	30.666 
09:05	25.7	25.7	25.7	75	18.9	2	6	90	0.00	30.666 
09:10	25.8	25.8	25.8	75	19.0	1	7	90	0.00	30.666 
09:15	25.8	25.8	25.8	74	18.7	3	7	90	0.00	30.677 
09:20	26.0	26.0	26.0	75	19.2	2	5	90	0.00	30.677 
09:25	26.1	26.1	26.1	75	19.3	1	5	90	0.00	30.677 
09:30	26.3	26.3	26.3	75	19.5	3	6	90	0.00	30.676 
09:35	26.6	26.6	26.6	75	19.8	1	5	112	0.00	30.676 
09:40	26.7	26.7	26.7	76	20.2	1	5	90	0.00	30.676 
09:45	26.9	26.9	26.9	76	20.4	3	10	90	0.00	30.670 
09:50	27.0	27.0	27.0	76	20.5	2	7	90	0.00	30.670 
09:55	27.3	27.3	27.3	76	20.8	2	5	90	0.00	30.670 
10:00	27.6	27.6	27.6	76	21.0	3	8	112	0.00	30.668 
10:05	28.1	28.1	28.1	76	21.5	2	7	90	0.00	30.668 
10:10	28.1	28.1	28.1	75	21.2	3	10	90	0.00	30.668 
10:15	28.2	28.2	28.2	75	21.3	2	5	90	0.00	30.675 
10:20	28.4	28.4	28.4	75	21.5	1	7	90	0.00	30.675 
10:25	28.7	28.7	28.7	76	22.1	1	6	112	0.00	30.675 
10:30	28.8	28.8	28.8	76	22.2	1	6	68	0.00	30.676 
10:35	29.1	29.1	29.1	75	22.2	1	5	68	0.00	30.676 
10:40	29.4	29.4	29.4	75	22.5	2	7	68	0.00	30.676 
10:45	29.5	29.5	29.5	75	22.6	2	7	90	0.00	30.677 
10:50	29.7	29.7	29.7	75	22.8	1	5	90	0.00	30.677 
10:55	30.0	30.0	30.0	75	23.1	2	5	90	0.00	30.677 
11:00	30.1	30.1	30.1	74	22.8	1	5	112	0.00	30.676 
11:05	30.3	30.3	30.3	74	23.0	1	6	90	0.00	30.676 
11:10	30.6	30.6	30.6	74	23.3	2	5	90	0.00	30.676 
11:15	30.7	30.7	30.7	74	23.4	3	5	90	0.00	30.671 
11:20	30.9	30.9	30.9	74	23.6	2	5	112	0.00	30.671 
11:25	31.0	31.0	31.0	74	23.7	2	9	90	0.00	30.671 
11:30	31.2	31.2	31.2	75	24.2	2	7	90	0.00	30.658 
11:35	31.6	31.6	31.6	75	24.6	1	4	90	0.00	30.658 
11:40	31.9	31.9	31.9	74	24.6	3	7	90	0.00	30.658 
11:45	32.1	32.1	32.1	74	24.8	2	6	90	0.00	30.643 
11:50	32.4	32.4	32.4	75	25.4	2	7	90	0.00	30.643 
11:55	32.7	32.7	32.7	74	25.3	1	9	90	0.00	30.643 
12:00	32.8	32.8	32.8	74	25.4	3	7	68	0.00	30.630 
12:05	32.9	29.1	32.9	73	25.2	4	11	112	0.00	30.630 
12:10	33.1	33.1	33.1	73	25.4	3	7	90	0.00	30.630 
12:15	32.9	28.1	32.9	73	25.2	5	10	90	0.00	30.626 
12:20	32.9	29.1	32.9	73	25.2	4	11	90	0.00	30.626 
12:25	33.2	33.2	33.2	74	25.8	3	9	90	0.00	30.626 
12:30	33.5	33.5	33.5	74	26.1	2	9	90	0.00	30.625 
12:35	33.5	29.8	33.5	73	25.8	4	10	90	0.00	30.625 
12:40	33.7	30.0	33.7	73	26.0	4	10	90	0.00	30.625 
12:45	33.8	29.2	33.8	73	26.1	5	12	90	0.00	30.611 
12:50	34.0	34.0	34.0	74	26.6	3	7	90	0.00	30.611 
12:55	34.3	30.7	34.3	73	26.6	4	9	90	0.00	30.611 
13:00	34.1	30.5	34.1	73	26.4	4	11	90	0.00	30.603 
13:05	34.3	30.7	34.3	73	26.6	4	10	90	0.00	30.603 
13:10	34.4	34.4	34.4	73	26.7	3	7	112	0.00	30.603 
13:15	34.6	34.6	34.6	74	27.2	3	11	90	0.00	30.596 
13:20	34.7	34.7	34.7	73	26.9	3	6	112	0.00	30.596 
13:25	34.7	30.2	34.7	73	26.9	5	10	112	0.00	30.596 
13:30	34.7	31.2	34.7	72	26.6	4	9	90	0.00	30.590 
13:35	34.9	34.9	34.9	72	26.8	3	11	90	0.00	30.590 
13:40	35.0	35.0	35.0	73	27.2	1	5	90	0.00	30.590 
13:45	35.2	35.2	35.2	72	27.1	3	6	90	0.00	30.585 
13:50	35.2	35.2	35.2	73	27.4	3	6	90	0.00	30.585 
13:55	35.2	35.2	35.2	71	26.8	3	7	112	0.00	30.585 
14:00	35.2	31.8	35.2	71	26.8	4	9	112	0.00	30.580 
14:05	35.0	31.5	35.0	72	26.9	4	9	90	0.00	30.580 
14:10	35.0	30.6	35.0	71	26.6	5	11	90	0.00	30.580 
14:15	35.0	31.5	35.0	71	26.6	4	10	90	0.00	30.567 
14:20	35.2	31.8	35.2	71	26.8	4	9	90	0.00	30.567 
14:25	35.2	31.8	35.2	72	27.1	4	11	90	0.00	30.567 
14:30	35.2	31.8	35.2	72	27.1	4	11	90	0.00	30.564 
14:35	35.2	35.2	35.2	73	27.4	3	9	112	0.00	30.564 
14:40	35.2	35.2	35.2	73	27.4	3	10	90	0.00	30.564 
14:45	35.0	31.5	35.0	73	27.2	4	10	90	0.00	30.566 
14:50	35.2	35.2	35.2	74	27.8	2	6	90	0.00	30.566 
14:55	35.2	35.2	35.2	74	27.8	3	6	90	0.00	30.566 
15:00	35.2	35.2	35.2	74	27.8	2	7	90	0.00	30.560 
15:05	35.2	31.8	35.2	73	27.4	4	10	90	0.00	30.560 
15:10	35.2	35.2	35.2	74	27.8	3	8	90	0.00	30.560 
15:15	35.2	31.8	35.2	74	27.8	4	10	90	0.00	30.547 
15:20	35.2	35.2	35.2	74	27.8	3	9	90	0.00	30.547 
15:25	35.2	31.8	35.2	74	27.8	4	11	90	0.00	30.547 
15:30	35.0	30.6	35.0	75	27.9	5	10	90	0.00	30.545 
15:35	35.0	31.5	35.0	75	27.9	4	12	90	0.00	30.545 
15:40	35.2	35.2	35.2	75	28.1	3	6	90	0.00	30.545 
15:45	35.5	32.1	35.5	75	28.4	4	10	90	0.00	30.540 
15:50	35.6	32.2	35.6	74	28.1	4	10	90	0.00	30.540 
15:55	35.8	31.5	35.8	73	28.0	5	10	90	0.00	30.540 
16:00	35.6	30.5	35.6	73	27.8	6	12	90	0.00	30.534 
16:05	35.5	31.2	35.5	73	27.7	5	12	90	0.00	30.534 
16:10	35.3	31.9	35.3	73	27.5	4	11	90	0.00	30.534 
16:15	35.3	31.9	35.3	74	27.9	4	9	90	0.00	30.534 
16:20	35.2	35.2	35.2	75	28.1	3	8	90	0.00	30.534 
16:25	35.2	35.2	35.2	75	28.1	2	9	90	0.00	30.534 
16:30	35.2	35.2	35.2	75	28.1	2	5	68	0.00	30.535 
16:35	35.2	35.2	35.2	75	28.1	3	6	90	0.00	30.535 
16:40	35.0	35.0	35.0	75	27.9	2	7	90	0.00	30.535 
16:45	34.9	34.9	34.9	75	27.8	3	6	90	0.00	30.531 
16:50	34.7	34.7	34.7	76	27.9	2	5	90	0.00	30.531 
16:55	34.4	34.4	34.4	77	27.9	2	6	90	0.00	30.531 
17:00	34.3	34.3	34.3	77	27.9	2	7	90	0.00	30.530 
17:05	34.1	34.1	34.1	77	27.7	2	5	90	0.00	30.530 
17:10	33.8	33.8	33.8	78	27.7	2	7	90	0.00	30.530 
17:15	33.7	33.7	33.7	78	27.6	2	5	90	0.00	30.523 
17:20	33.4	33.4	33.4	79	27.6	3	6	90	0.00	30.523 
17:25	33.2	33.2	33.2	79	27.4	2	5	68	0.00	30.523 
17:30	33.1	33.1	33.1	80	27.6	3	6	90	0.00	30.523 
17:35	32.8	32.8	32.8	80	27.3	2	5	90	0.00	30.523 
17:40	32.7	32.7	32.7	81	27.5	3	7	90	0.00	30.523 
17:45	32.5	32.5	32.5	81	27.3	2	6	90	0.00	30.521 
17:50	32.5	32.5	32.5	81	27.3	2	6	90	0.00	30.521 
17:55	32.4	32.4	32.4	81	27.2	2	5	90	0.00	30.521 
18:00	32.4	32.4	32.4	81	27.2	1	4	90	0.00	30.524 
18:05	32.2	32.2	32.2	81	27.0	1	4	90	0.00	30.524 
18:10	32.2	32.2	32.2	81	27.0	2	5	90	0.00	30.524 
18:15	32.2	32.2	32.2	81	27.0	2	6	90	0.00	30.521 
18:20	32.2	32.2	32.2	81	27.0	3	6	90	0.00	30.521 
18:25	32.2	32.2	32.2	81	27.0	3	5	90	0.00	30.521 
18:30	32.1	32.1	32.1	82	27.2	3	7	90	0.00	30.520 
18:35	32.1	32.1	32.1	82	27.2	3	7	90	0.00	30.520 
18:40	31.9	28.0	31.9	83	27.3	4	7	90	0.00	30.520 
18:45	31.8	31.8	31.8	83	27.2	3	6	68	0.00	30.516 
18:50	31.6	27.6	31.6	84	27.3	4	9	90	0.00	30.516 
18:55	31.5	31.5	31.5	84	27.2	3	10	90	0.00	30.516 
19:00	31.3	31.3	31.3	84	27.0	2	6	90	0.00	30.510 
19:05	31.3	27.3	31.3	84	27.0	4	9	90	0.00	30.510 
19:10	31.3	26.3	31.3	85	27.3	5	10	90	0.00	30.510 
19:15	31.2	31.2	31.2	85	27.2	3	9	90	0.00	30.513 
19:20	31.2	31.2	31.2	85	27.2	3	6	90	0.00	30.513 
19:25	31.0	31.0	31.0	85	27.0	3	7	90	0.00	30.513 
19:30	31.0	26.9	31.0	85	27.0	4	12	90	0.00	30.508 
19:35	31.0	26.9	31.0	85	27.0	4	8	90	0.00	30.508 
19:40	30.9	26.8	30.9	85	26.9	4	9	90	0.00	30.508 
19:45	30.9	30.9	30.9	85	26.9	3	7	90	0.00	30.506 
19:50	30.9	30.9	30.9	85	26.9	3	8	90	0.00	30.506 
19:55	30.7	30.7	30.7	85	26.7	3	6	90	0.00	30.506 
20:00	30.7	26.6	30.7	86	27.0	4	8	90	0.00	30.493 
20:05	30.7	30.7	30.7	86	27.0	3	9	90	0.00	30.493 
20:10	30.7	30.7	30.7	86	27.0	3	9	90	0.00	30.493 
20:15	30.6	30.6	30.6	86	26.9	3	9	90	0.00	30.488 
20:20	30.6	30.6	30.6	86	26.9	3	7	90	0.00	30.488 
20:25	30.6	30.6	30.6	86	26.9	3	9	90	0.00	30.488 
20:30	30.6	30.6	30.6	86	26.9	3	10	90	0.00	30.483 
20:35	30.6	25.4	30.6	86	26.9	5	10	112	0.00	30.483 
20:40	30.6	26.5	30.6	86	26.9	4	9	90	0.00	30.483 
20:45	30.6	26.5	30.6	86	26.9	4	9	90	0.00	30.472 
20:50	30.6	30.6	30.6	86	26.9	3	7	90	0.00	30.472 
20:55	30.4	30.4	30.4	86	26.7	3	10	90	0.00	30.472 
21:00	30.4	30.4	30.4	86	26.7	3	6	112	0.00	30.469 
21:05	30.4	30.4	30.4	86	26.7	3	6	112	0.00	30.469 
21:10	30.4	30.4	30.4	86	26.7	3	7	90	0.00	30.469 
21:15	30.4	30.4	30.4	86	26.7	3	6	90	0.00	30.458 
21:20	30.4	30.4	30.4	86	26.7	3	9	90	0.00	30.458 
21:25	30.4	26.2	30.4	86	26.7	4	12	112	0.00	30.458 
21:30	30.4	30.4	30.4	86	26.7	2	6	90	0.00	30.456 
21:35	30.3	30.3	30.3	86	26.6	2	5	90	0.00	30.456 
21:40	30.3	30.3	30.3	86	26.6	2	6	90	0.00	30.456 
21:45	30.3	30.3	30.3	86	26.6	3	6	90	0.00	30.457 
21:50	30.3	30.3	30.3	86	26.6	2	5	90	0.00	30.457 
21:55	30.3	30.3	30.3	86	26.6	3	5	90	0.00	30.457 
22:00	30.1	30.1	30.1	86	26.4	3	5	112	0.00	30.448 
22:05	30.1	30.1	30.1	86	26.4	3	5	112	0.00	30.448 
22:10	30.1	30.1	30.1	86	26.4	3	6	90	0.00	30.448 
22:15	30.1	30.1	30.1	87	26.7	2	5	90	0.00	30.437 
22:20	30.1	30.1	30.1	87	26.7	3	5	90	0.00	30.437 
22:25	30.1	25.9	30.1	87	26.7	4	7	90	0.00	30.437 
22:30	30.1	30.1	30.1	87	26.7	3	7	90	0.00	30.422 
22:35	30.1	30.1	30.1	87	26.7	3	7	112	0.00	30.422 
22:40	30.1	30.1	30.1	87	26.7	3	7	90	0.00	30.422 
22:45	30.1	30.1	30.1	87	26.7	2	3	90	0.00	30.418 
22:50	30.1	30.1	30.1	87	26.7	2	7	90	0.00	30.418 
22:55	30.1	30.1	30.1	87	26.7	2	4	68	0.00	30.418 
23:00	30.1	30.1	30.1	87	26.7	2	4	68	0.00	30.412 
23:05	30.1	30.1	30.1	87	26.7	2	6	90	0.00	30.412 
23:10	30.1	30.1	30.1	87	26.7	2	6	90	0.00	30.412 
23:15	30.1	30.1	30.1	87	26.7	3	9	90	0.00	30.392 
23:20	30.1	30.1	30.1	87	26.7	2	4	90	0.00	30.392 
23:25	30.1	30.1	30.1	87	26.7	2	5	90	0.00	30.392 
23:30	30.1	30.1	30.1	87	26.7	2	5	90	0.00	30.390 
23:35	30.0	30.0	30.0	87	26.6	1	3	90	0.00	30.390 
23:40	30.0	30.0	30.0	87	26.6	2	4	90	0.00	30.390 
23:45	30.0	30.0	30.0	87	26.6	2	6	90	0.00	30.387 
23:50	30.0	30.0	30.0	87	26.6	2	6	90	0.00	30.387 
23:55	30.0	30.0	30.0	87	26.6	1	4	90	0.00	30.387 

CoCoRaHS
IN-AL-39
A2 Web Hosting
Creative Commons License
GoDaddy
search engine by freefind advanced

loaded 2018-11-15 14:32:54 • last modified 2010-11-18 10:43:29
Privacy PolicyDisclaimer
• wx.awcolley.com is powered by PmWiki v.2002016 •
• all content (unless otherwise noted) © 2018 A W Colley